sensor_id;sensor_type;location;lat;lon;timestamp;P1;durP1;ratioP1;P2;durP2;ratioP2
25569;SDS011;17955;45.542;9.238;2022-11-15T03:59:48;26.75;;;14.68;;
25569;SDS011;17955;45.542;9.238;2022-11-15T04:04:15;27.50;;;15.23;;
25569;SDS011;17955;45.542;9.238;2022-11-15T04:11:04;25.45;;;14.80;;
25569;SDS011;17955;45.542;9.238;2022-11-15T04:30:37;25.08;;;14.68;;
25569;SDS011;17955;45.542;9.238;2022-11-15T04:33:23;26.17;;;15.00;;
25569;SDS011;17955;45.542;9.238;2022-11-15T04:36:09;24.70;;;14.57;;
25569;SDS011;17955;45.542;9.238;2022-11-15T04:39:12;25.88;;;15.07;;
25569;SDS011;17955;45.542;9.238;2022-11-15T04:41:58;25.53;;;15.80;;
25569;SDS011;17955;45.542;9.238;2022-11-15T04:44:44;24.23;;;14.77;;
25569;SDS011;17955;45.542;9.238;2022-11-15T04:47:30;37.85;;;15.57;;
25569;SDS011;17955;45.542;9.238;2022-11-15T04:50:16;22.98;;;13.45;;
25569;SDS011;17955;45.542;9.238;2022-11-15T04:53:03;24.67;;;14.38;;
25569;SDS011;17955;45.542;9.238;2022-11-15T04:55:48;24.95;;;14.27;;
25569;SDS011;17955;45.542;9.238;2022-11-15T04:58:34;20.33;;;12.67;;
25569;SDS011;17955;45.542;9.238;2022-11-15T05:01:19;26.30;;;14.57;;
25569;SDS011;17955;45.542;9.238;2022-11-15T05:04:07;23.77;;;14.10;;
25569;SDS011;17955;45.542;9.238;2022-11-15T05:07:03;25.77;;;14.25;;
25569;SDS011;17955;45.542;9.238;2022-11-15T05:09:50;24.40;;;12.98;;
25569;SDS011;17955;45.542;9.238;2022-11-15T05:12:35;21.45;;;13.63;;
25569;SDS011;17955;45.542;9.238;2022-11-15T05:15:21;26.35;;;15.32;;
25569;SDS011;17955;45.542;9.238;2022-11-15T05:18:07;24.30;;;13.70;;
25569;SDS011;17955;45.542;9.238;2022-11-15T05:20:55;21.02;;;13.88;;
25569;SDS011;17955;45.542;9.238;2022-11-15T05:23:41;28.50;;;14.55;;
25569;SDS011;17955;45.542;9.238;2022-11-15T05:26:27;18.98;;;11.95;;
25569;SDS011;17955;45.542;9.238;2022-11-15T05:29:12;32.78;;;15.68;;
25569;SDS011;17955;45.542;9.238;2022-11-15T05:31:59;28.23;;;17.35;;
25569;SDS011;17955;45.542;9.238;2022-11-15T05:34:45;32.85;;;17.83;;
25569;SDS011;17955;45.542;9.238;2022-11-15T05:37:32;28.15;;;15.82;;
25569;SDS011;17955;45.542;9.238;2022-11-15T05:40:20;23.48;;;14.82;;
25569;SDS011;17955;45.542;9.238;2022-11-15T05:43:06;16.98;;;10.77;;
25569;SDS011;17955;45.542;9.238;2022-11-15T05:45:52;28.58;;;15.25;;
25569;SDS011;17955;45.542;9.238;2022-11-15T05:48:38;25.63;;;15.68;;
25569;SDS011;17955;45.542;9.238;2022-11-15T05:51:26;25.10;;;15.07;;
25569;SDS011;17955;45.542;9.238;2022-11-15T05:54:15;27.00;;;14.82;;
25569;SDS011;17955;45.542;9.238;2022-11-15T05:57:01;24.00;;;14.88;;
25569;SDS011;17955;45.542;9.238;2022-11-15T05:59:47;26.13;;;14.27;;
25569;SDS011;17955;45.542;9.238;2022-11-15T06:02:34;23.52;;;14.82;;
25569;SDS011;17955;45.542;9.238;2022-11-15T06:05:19;24.07;;;14.33;;
25569;SDS011;17955;45.542;9.238;2022-11-15T06:08:06;24.15;;;13.70;;
25569;SDS011;17955;45.542;9.238;2022-11-15T06:10:53;25.77;;;15.07;;
25569;SDS011;17955;45.542;9.238;2022-11-15T06:13:40;22.70;;;15.15;;
25569;SDS011;17955;45.542;9.238;2022-11-15T06:16:26;22.70;;;14.20;;
25569;SDS011;17955;45.542;9.238;2022-11-15T06:19:12;22.60;;;14.93;;
25569;SDS011;17955;45.542;9.238;2022-11-15T06:21:58;27.27;;;15.77;;
25569;SDS011;17955;45.542;9.238;2022-11-15T06:24:44;24.58;;;15.88;;
25569;SDS011;17955;45.542;9.238;2022-11-15T06:27:32;26.55;;;15.52;;
25569;SDS011;17955;45.542;9.238;2022-11-15T06:30:17;22.08;;;14.43;;
25569;SDS011;17955;45.542;9.238;2022-11-15T06:33:04;26.05;;;15.15;;
25569;SDS011;17955;45.542;9.238;2022-11-15T06:35:52;23.52;;;14.63;;
25569;SDS011;17955;45.542;9.238;2022-11-15T06:38:38;27.38;;;15.85;;
25569;SDS011;17955;45.542;9.238;2022-11-15T06:41:24;24.40;;;15.57;;
25569;SDS011;17955;45.542;9.238;2022-11-15T06:44:11;19.60;;;11.90;;
25569;SDS011;17955;45.542;9.238;2022-11-15T06:46:57;24.92;;;14.98;;
25569;SDS011;17955;45.542;9.238;2022-11-15T06:49:44;24.83;;;14.33;;
25569;SDS011;17955;45.542;9.238;2022-11-15T06:52:47;23.90;;;14.82;;
25569;SDS011;17955;45.542;9.238;2022-11-15T07:02:13;21.52;;;14.00;;
25569;SDS011;17955;45.542;9.238;2022-11-15T07:04:58;24.08;;;14.82;;
25569;SDS011;17955;45.542;9.238;2022-11-15T07:07:50;26.95;;;15.25;;
25569;SDS011;17955;45.542;9.238;2022-11-15T07:10:44;23.88;;;14.75;;
25569;SDS011;17955;45.542;9.238;2022-11-15T07:13:30;25.63;;;14.60;;
25569;SDS011;17955;45.542;9.238;2022-11-15T07:16:53;24.02;;;14.25;;
25569;SDS011;17955;45.542;9.238;2022-11-15T07:19:40;26.73;;;16.15;;
25569;SDS011;17955;45.542;9.238;2022-11-15T07:22:26;23.55;;;13.77;;
25569;SDS011;17955;45.542;9.238;2022-11-15T07:25:12;23.80;;;14.15;;
25569;SDS011;17955;45.542;9.238;2022-11-15T07:27:58;23.45;;;14.27;;
25569;SDS011;17955;45.542;9.238;2022-11-15T07:30:44;22.80;;;15.00;;
25569;SDS011;17955;45.542;9.238;2022-11-15T07:33:30;26.37;;;15.07;;
25569;SDS011;17955;45.542;9.238;2022-11-15T07:36:17;23.77;;;15.55;;
25569;SDS011;17955;45.542;9.238;2022-11-15T07:39:03;25.98;;;15.13;;
25569;SDS011;17955;45.542;9.238;2022-11-15T07:41:49;29.43;;;14.87;;
25569;SDS011;17955;45.542;9.238;2022-11-15T07:44:55;22.20;;;14.45;;
25569;SDS011;17955;45.542;9.238;2022-11-15T07:47:42;25.90;;;14.85;;
25569;SDS011;17955;45.542;9.238;2022-11-15T07:50:30;23.48;;;15.27;;
25569;SDS011;17955;45.542;9.238;2022-11-15T07:53:17;24.30;;;15.23;;
25569;SDS011;17955;45.542;9.238;2022-11-15T07:56:05;0.75;;;0.75;;
25569;SDS011;17955;45.542;9.238;2022-11-15T07:58:51;2.55;;;2.35;;
25569;SDS011;17955;45.542;9.238;2022-11-15T08:01:37;0.50;;;0.50;;
25569;SDS011;17955;45.542;9.238;2022-11-15T08:04:23;1.25;;;1.17;;
25569;SDS011;17955;45.542;9.238;2022-11-15T08:07:08;1.00;;;1.00;;
25569;SDS011;17955;45.542;9.238;2022-11-15T08:09:56;1.38;;;1.27;;
25569;SDS011;17955;45.542;9.238;2022-11-15T08:12:42;0.60;;;0.60;;
25569;SDS011;17955;45.542;9.238;2022-11-15T08:15:27;0.60;;;0.60;;
25569;SDS011;17955;45.542;9.238;2022-11-15T08:18:14;0.60;;;0.60;;
25569;SDS011;17955;45.542;9.238;2022-11-15T08:21:00;0.50;;;0.50;;
25569;SDS011;17955;45.542;9.238;2022-11-15T08:26:34;0.60;;;0.60;;
25569;SDS011;17955;45.542;9.238;2022-11-15T08:29:20;1.00;;;1.00;;
25569;SDS011;17955;45.542;9.238;2022-11-15T08:32:06;0.57;;;0.57;;
25569;SDS011;17955;45.542;9.238;2022-11-15T08:34:52;2.05;;;1.90;;
25569;SDS011;17955;45.542;9.238;2022-11-15T08:37:37;0.60;;;0.60;;
25569;SDS011;17955;45.542;9.238;2022-11-15T08:40:25;0.50;;;0.50;;
25569;SDS011;17955;45.542;9.238;2022-11-15T08:43:12;0.82;;;0.80;;
25569;SDS011;17955;45.542;9.238;2022-11-15T08:45:58;1.30;;;1.20;;
25569;SDS011;17955;45.542;9.238;2022-11-15T08:48:44;0.50;;;0.50;;
25569;SDS011;17955;45.542;9.238;2022-11-15T08:51:29;0.60;;;0.60;;
25569;SDS011;17955;45.542;9.238;2022-11-15T08:54:15;1.05;;;1.02;;
25569;SDS011;17955;45.542;9.238;2022-11-15T08:57:01;0.50;;;0.50;;
25569;SDS011;17955;45.542;9.238;2022-11-15T08:59:49;0.88;;;0.88;;
25569;SDS011;17955;45.542;9.238;2022-11-15T09:02:35;0.57;;;0.57;;
25569;SDS011;17955;45.542;9.238;2022-11-15T09:05:22;0.50;;;0.50;;
25569;SDS011;17955;45.542;9.238;2022-11-15T09:08:08;0.80;;;0.80;;
25569;SDS011;17955;45.542;9.238;2022-11-15T09:10:55;0.60;;;0.60;;
25569;SDS011;17955;45.542;9.238;2022-11-15T09:13:40;0.55;;;0.55;;
25569;SDS011;17955;45.542;9.238;2022-11-15T09:16:27;0.63;;;0.63;;
25569;SDS011;17955;45.542;9.238;2022-11-15T09:19:13;0.70;;;0.70;;
25569;SDS011;17955;45.542;9.238;2022-11-15T09:21:59;1.05;;;1.05;;
25569;SDS011;17955;45.542;9.238;2022-11-15T09:24:45;0.60;;;0.60;;
25569;SDS011;17955;45.542;9.238;2022-11-15T09:27:30;0.90;;;0.90;;
25569;SDS011;17955;45.542;9.238;2022-11-15T09:30:16;0.73;;;0.73;;
25569;SDS011;17955;45.542;9.238;2022-11-15T09:33:07;1.07;;;1.07;;
25569;SDS011;17955;45.542;9.238;2022-11-15T09:35:53;1.52;;;1.38;;
25569;SDS011;17955;45.542;9.238;2022-11-15T09:38:39;0.77;;;0.77;;
25569;SDS011;17955;45.542;9.238;2022-11-15T09:44:43;0.50;;;0.50;;
25569;SDS011;17955;45.542;9.238;2022-11-15T09:47:44;0.82;;;0.82;;
25569;SDS011;17955;45.542;9.238;2022-11-15T09:50:41;0.80;;;0.80;;
25569;SDS011;17955;45.542;9.238;2022-11-15T09:53:17;1.85;;;1.67;;
25569;SDS011;17955;45.542;9.238;2022-11-15T09:55:49;0.50;;;0.50;;
25569;SDS011;17955;45.542;9.238;2022-11-15T09:58:20;0.47;;;0.47;;
25569;SDS011;17955;45.542;9.238;2022-11-15T10:00:48;0.50;;;0.50;;
25569;SDS011;17955;45.542;9.238;2022-11-15T10:03:18;0.50;;;0.50;;
25569;SDS011;17955;45.542;9.238;2022-11-15T10:05:49;0.60;;;0.60;;
25569;SDS011;17955;45.542;9.238;2022-11-15T10:11:00;0.80;;;0.80;;
25569;SDS011;17955;45.542;9.238;2022-11-15T10:13:30;0.40;;;0.40;;
25569;SDS011;17955;45.542;9.238;2022-11-15T10:16:01;0.95;;;0.93;;
25569;SDS011;17955;45.542;9.238;2022-11-15T10:18:33;0.60;;;0.60;;
25569;SDS011;17955;45.542;9.238;2022-11-15T10:21:17;0.60;;;0.60;;
25569;SDS011;17955;45.542;9.238;2022-11-15T10:23:44;0.50;;;0.50;;
25569;SDS011;17955;45.542;9.238;2022-11-15T10:26:12;0.60;;;0.60;;
25569;SDS011;17955;45.542;9.238;2022-11-15T10:28:40;0.70;;;0.70;;
25569;SDS011;17955;45.542;9.238;2022-11-15T10:31:19;1.20;;;1.15;;
25569;SDS011;17955;45.542;9.238;2022-11-15T10:33:48;0.77;;;0.77;;
25569;SDS011;17955;45.542;9.238;2022-11-15T10:36:20;0.60;;;0.60;;
25569;SDS011;17955;45.542;9.238;2022-11-15T10:38:56;0.40;;;0.40;;
25569;SDS011;17955;45.542;9.238;2022-11-15T10:44:20;0.50;;;0.50;;
25569;SDS011;17955;45.542;9.238;2022-11-15T10:46:48;0.40;;;0.40;;
25569;SDS011;17955;45.542;9.238;2022-11-15T10:49:30;0.70;;;0.60;;
25569;SDS011;17955;45.542;9.238;2022-11-15T10:52:00;0.50;;;0.50;;
25569;SDS011;17955;45.542;9.238;2022-11-15T10:54:29;0.85;;;0.85;;
25569;SDS011;17955;45.542;9.238;2022-11-15T10:56:58;0.50;;;0.50;;
25569;SDS011;17955;45.542;9.238;2022-11-15T10:59:26;0.60;;;0.60;;
25569;SDS011;17955;45.542;9.238;2022-11-15T11:01:54;1.02;;;1.02;;
25569;SDS011;17955;45.542;9.238;2022-11-15T11:04:22;0.70;;;0.70;;
25569;SDS011;17955;45.542;9.238;2022-11-15T11:06:50;0.63;;;0.60;;
25569;SDS011;17955;45.542;9.238;2022-11-15T11:12:03;0.60;;;0.60;;
25569;SDS011;17955;45.542;9.238;2022-11-15T11:14:31;1.23;;;1.17;;
25569;SDS011;17955;45.542;9.238;2022-11-15T11:17:02;0.80;;;0.80;;
25569;SDS011;17955;45.542;9.238;2022-11-15T11:19:37;1.77;;;1.67;;
25569;SDS011;17955;45.542;9.238;2022-11-15T11:22:09;1.40;;;1.35;;
25569;SDS011;17955;45.542;9.238;2022-11-15T11:24:42;4.57;;;1.33;;
25569;SDS011;17955;45.542;9.238;2022-11-15T11:27:19;0.57;;;0.57;;
25569;SDS011;17955;45.542;9.238;2022-11-15T11:29:53;6.22;;;1.50;;
25569;SDS011;17955;45.542;9.238;2022-11-15T11:32:28;0.40;;;0.40;;
25569;SDS011;17955;45.542;9.238;2022-11-15T11:34:58;0.40;;;0.40;;
25569;SDS011;17955;45.542;9.238;2022-11-15T11:37:30;1.30;;;1.20;;
25569;SDS011;17955;45.542;9.238;2022-11-15T11:40:03;0.63;;;0.63;;
25569;SDS011;17955;45.542;9.238;2022-11-15T11:42:37;0.70;;;0.70;;
25569;SDS011;17955;45.542;9.238;2022-11-15T11:45:14;0.77;;;0.77;;
25569;SDS011;17955;45.542;9.238;2022-11-15T11:47:46;2.47;;;2.28;;
25569;SDS011;17955;45.542;9.238;2022-11-15T11:50:15;1.35;;;1.27;;
25569;SDS011;17955;45.542;9.238;2022-11-15T11:52:54;0.65;;;0.65;;
25569;SDS011;17955;45.542;9.238;2022-11-15T11:55:23;1.15;;;1.13;;
25569;SDS011;17955;45.542;9.238;2022-11-15T11:58:03;0.40;;;0.40;;
25569;SDS011;17955;45.542;9.238;2022-11-15T12:00:31;4.32;;;1.35;;
25569;SDS011;17955;45.542;9.238;2022-11-15T12:03:03;0.70;;;0.70;;
25569;SDS011;17955;45.542;9.238;2022-11-15T12:05:36;1.00;;;1.00;;
25569;SDS011;17955;45.542;9.238;2022-11-15T12:08:08;1.13;;;1.02;;
25569;SDS011;17955;45.542;9.238;2022-11-15T12:10:38;0.40;;;0.40;;
25569;SDS011;17955;45.542;9.238;2022-11-15T12:13:08;1.05;;;1.05;;
25569;SDS011;17955;45.542;9.238;2022-11-15T12:15:39;3.03;;;1.60;;
25569;SDS011;17955;45.542;9.238;2022-11-15T12:18:08;0.60;;;0.60;;
25569;SDS011;17955;45.542;9.238;2022-11-15T12:20:39;0.55;;;0.55;;
25569;SDS011;17955;45.542;9.238;2022-11-15T12:23:08;0.50;;;0.50;;
25569;SDS011;17955;45.542;9.238;2022-11-15T12:25:40;0.70;;;0.70;;
25569;SDS011;17955;45.542;9.238;2022-11-15T12:28:13;0.50;;;0.50;;
25569;SDS011;17955;45.542;9.238;2022-11-15T12:30:44;0.50;;;0.50;;
25569;SDS011;17955;45.542;9.238;2022-11-15T12:33:31;0.85;;;0.85;;
25569;SDS011;17955;45.542;9.238;2022-11-15T12:35:59;0.70;;;0.70;;
25569;SDS011;17955;45.542;9.238;2022-11-15T12:41:14;0.60;;;0.60;;
25569;SDS011;17955;45.542;9.238;2022-11-15T12:43:44;1.98;;;1.40;;
25569;SDS011;17955;45.542;9.238;2022-11-15T12:46:18;1.17;;;1.13;;
25569;SDS011;17955;45.542;9.238;2022-11-15T12:48:54;0.75;;;0.75;;
25569;SDS011;17955;45.542;9.238;2022-11-15T12:59:49;0.57;;;0.57;;
25569;SDS011;17955;45.542;9.238;2022-11-15T13:02:17;2.08;;;1.98;;
25569;SDS011;17955;45.542;9.238;2022-11-15T13:04:46;1.10;;;1.00;;
25569;SDS011;17955;45.542;9.238;2022-11-15T13:07:54;0.55;;;0.55;;
25569;SDS011;17955;45.542;9.238;2022-11-15T13:12:53;2.63;;;1.27;;
25569;SDS011;17955;45.542;9.238;2022-11-15T13:15:35;0.73;;;0.73;;
25569;SDS011;17955;45.542;9.238;2022-11-15T13:20:44;0.70;;;0.70;;
25569;SDS011;17955;45.542;9.238;2022-11-15T13:23:12;0.57;;;0.57;;
25569;SDS011;17955;45.542;9.238;2022-11-15T13:25:50;0.50;;;0.50;;
25569;SDS011;17955;45.542;9.238;2022-11-15T13:28:21;0.50;;;0.50;;
25569;SDS011;17955;45.542;9.238;2022-11-15T13:30:54;0.50;;;0.50;;
25569;SDS011;17955;45.542;9.238;2022-11-15T13:33:23;0.50;;;0.50;;
25569;SDS011;17955;45.542;9.238;2022-11-15T13:35:52;0.60;;;0.60;;
25569;SDS011;17955;45.542;9.238;2022-11-15T13:38:25;1.77;;;1.48;;
25569;SDS011;17955;45.542;9.238;2022-11-15T13:40:53;0.98;;;0.98;;
25569;SDS011;17955;45.542;9.238;2022-11-15T13:43:29;3.55;;;2.13;;
25569;SDS011;17955;45.542;9.238;2022-11-15T13:46:07;2.25;;;1.00;;
25569;SDS011;17955;45.542;9.238;2022-11-15T13:48:38;1.67;;;1.58;;
25569;SDS011;17955;45.542;9.238;2022-11-15T13:51:09;0.70;;;0.70;;
25569;SDS011;17955;45.542;9.238;2022-11-15T13:53:38;0.50;;;0.50;;
25569;SDS011;17955;45.542;9.238;2022-11-15T13:56:07;0.50;;;0.50;;
25569;SDS011;17955;45.542;9.238;2022-11-15T13:58:37;0.65;;;0.65;;
25569;SDS011;17955;45.542;9.238;2022-11-15T14:01:13;0.40;;;0.40;;
25569;SDS011;17955;45.542;9.238;2022-11-15T14:03:46;0.43;;;0.43;;
25569;SDS011;17955;45.542;9.238;2022-11-15T14:06:16;0.65;;;0.65;;
25569;SDS011;17955;45.542;9.238;2022-11-15T14:08:57;0.50;;;0.50;;
25569;SDS011;17955;45.542;9.238;2022-11-15T14:11:25;0.63;;;0.63;;
25569;SDS011;17955;45.542;9.238;2022-11-15T14:14:01;0.50;;;0.50;;
25569;SDS011;17955;45.542;9.238;2022-11-15T14:16:34;0.40;;;0.40;;
25569;SDS011;17955;45.542;9.238;2022-11-15T14:19:02;0.60;;;0.60;;
25569;SDS011;17955;45.542;9.238;2022-11-15T14:21:31;0.50;;;0.50;;
25569;SDS011;17955;45.542;9.238;2022-11-15T14:24:17;1.35;;;1.30;;
25569;SDS011;17955;45.542;9.238;2022-11-15T14:26:47;0.40;;;0.40;;
25569;SDS011;17955;45.542;9.238;2022-11-15T14:29:22;0.60;;;0.60;;
25569;SDS011;17955;45.542;9.238;2022-11-15T14:31:52;0.40;;;0.40;;
25569;SDS011;17955;45.542;9.238;2022-11-15T14:34:20;0.70;;;0.70;;
25569;SDS011;17955;45.542;9.238;2022-11-15T14:36:48;0.40;;;0.40;;
25569;SDS011;17955;45.542;9.238;2022-11-15T14:39:19;0.50;;;0.50;;
25569;SDS011;17955;45.542;9.238;2022-11-15T14:41:47;0.60;;;0.60;;
25569;SDS011;17955;45.542;9.238;2022-11-15T14:44:17;0.70;;;0.70;;
25569;SDS011;17955;45.542;9.238;2022-11-15T14:46:47;2.15;;;1.27;;
25569;SDS011;17955;45.542;9.238;2022-11-15T14:49:18;0.70;;;0.70;;
25569;SDS011;17955;45.542;9.238;2022-11-15T14:51:46;0.68;;;0.68;;
25569;SDS011;17955;45.542;9.238;2022-11-15T14:54:14;0.40;;;0.40;;
25569;SDS011;17955;45.542;9.238;2022-11-15T14:56:44;0.80;;;0.80;;
25569;SDS011;17955;45.542;9.238;2022-11-15T14:59:12;1.30;;;1.20;;
25569;SDS011;17955;45.542;9.238;2022-11-15T15:01:40;0.60;;;0.60;;
25569;SDS011;17955;45.542;9.238;2022-11-15T15:04:10;1.15;;;1.05;;
25569;SDS011;17955;45.542;9.238;2022-11-15T15:06:40;0.50;;;0.50;;
25569;SDS011;17955;45.542;9.238;2022-11-15T15:15:56;0.60;;;0.60;;
25569;SDS011;17955;45.542;9.238;2022-11-15T15:18:49;0.57;;;0.57;;
25569;SDS011;17955;45.542;9.238;2022-11-15T15:26:07;0.52;;;0.52;;
25569;SDS011;17955;45.542;9.238;2022-11-15T15:28:59;1.40;;;1.30;;
25569;SDS011;17955;45.542;9.238;2022-11-15T15:31:27;1.27;;;1.20;;
25569;SDS011;17955;45.542;9.238;2022-11-15T15:33:54;0.50;;;0.50;;
25569;SDS011;17955;45.542;9.238;2022-11-15T15:36:21;3.20;;;1.85;;
25569;SDS011;17955;45.542;9.238;2022-11-15T15:38:50;0.57;;;0.57;;
25569;SDS011;17955;45.542;9.238;2022-11-15T15:41:17;1.45;;;1.35;;
25569;SDS011;17955;45.542;9.238;2022-11-15T15:43:45;0.55;;;0.55;;
25569;SDS011;17955;45.542;9.238;2022-11-15T15:46:13;0.50;;;0.50;;
25569;SDS011;17955;45.542;9.238;2022-11-15T15:48:41;0.77;;;0.77;;
25569;SDS011;17955;45.542;9.238;2022-11-15T15:51:08;3.42;;;1.13;;
25569;SDS011;17955;45.542;9.238;2022-11-15T15:53:36;0.50;;;0.50;;
25569;SDS011;17955;45.542;9.238;2022-11-15T15:56:06;0.50;;;0.50;;
25569;SDS011;17955;45.542;9.238;2022-11-15T15:58:33;1.13;;;1.02;;
25569;SDS011;17955;45.542;9.238;2022-11-15T16:01:01;0.50;;;0.50;;
25569;SDS011;17955;45.542;9.238;2022-11-15T16:03:28;0.60;;;0.60;;
25569;SDS011;17955;45.542;9.238;2022-11-15T16:05:56;0.40;;;0.40;;
25569;SDS011;17955;45.542;9.238;2022-11-15T16:08:27;0.50;;;0.50;;
25569;SDS011;17955;45.542;9.238;2022-11-15T16:10:54;1.45;;;1.35;;
25569;SDS011;17955;45.542;9.238;2022-11-15T16:13:25;0.50;;;0.50;;
25569;SDS011;17955;45.542;9.238;2022-11-15T16:15:59;0.47;;;0.47;;
25569;SDS011;17955;45.542;9.238;2022-11-15T16:18:27;0.70;;;0.70;;
25569;SDS011;17955;45.542;9.238;2022-11-15T16:20:54;0.50;;;0.50;;
25569;SDS011;17955;45.542;9.238;2022-11-15T16:23:22;0.50;;;0.50;;
25569;SDS011;17955;45.542;9.238;2022-11-15T16:25:50;0.93;;;0.93;;
25569;SDS011;17955;45.542;9.238;2022-11-15T16:28:19;16.33;;;3.38;;
25569;SDS011;17955;45.542;9.238;2022-11-15T16:30:48;0.75;;;0.68;;
25569;SDS011;17955;45.542;9.238;2022-11-15T16:33:15;0.50;;;0.50;;
25569;SDS011;17955;45.542;9.238;2022-11-15T16:35:45;1.48;;;1.40;;
25569;SDS011;17955;45.542;9.238;2022-11-15T16:38:14;0.60;;;0.60;;
25569;SDS011;17955;45.542;9.238;2022-11-15T16:40:41;0.60;;;0.60;;
25569;SDS011;17955;45.542;9.238;2022-11-15T16:43:09;0.57;;;0.57;;
25569;SDS011;17955;45.542;9.238;2022-11-15T16:45:36;0.60;;;0.60;;
25569;SDS011;17955;45.542;9.238;2022-11-15T16:48:04;0.57;;;0.57;;
25569;SDS011;17955;45.542;9.238;2022-11-15T16:50:33;0.65;;;0.65;;
25569;SDS011;17955;45.542;9.238;2022-11-15T16:53:05;0.60;;;0.60;;
25569;SDS011;17955;45.542;9.238;2022-11-15T16:55:32;1.55;;;1.45;;
25569;SDS011;17955;45.542;9.238;2022-11-15T16:57:59;0.60;;;0.60;;
25569;SDS011;17955;45.542;9.238;2022-11-15T17:00:26;0.60;;;0.60;;
25569;SDS011;17955;45.542;9.238;2022-11-15T17:02:57;0.50;;;0.50;;
25569;SDS011;17955;45.542;9.238;2022-11-15T17:05:25;0.50;;;0.50;;
25569;SDS011;17955;45.542;9.238;2022-11-15T17:07:53;0.80;;;0.80;;
25569;SDS011;17955;45.542;9.238;2022-11-15T17:10:20;0.57;;;0.57;;
25569;SDS011;17955;45.542;9.238;2022-11-15T17:12:48;0.60;;;0.60;;
25569;SDS011;17955;45.542;9.238;2022-11-15T17:15:15;0.60;;;0.60;;
25569;SDS011;17955;45.542;9.238;2022-11-15T17:17:43;0.85;;;0.85;;
25569;SDS011;17955;45.542;9.238;2022-11-15T17:20:13;0.77;;;0.77;;
25569;SDS011;17955;45.542;9.238;2022-11-15T17:22:43;0.50;;;0.50;;
25569;SDS011;17955;45.542;9.238;2022-11-15T17:25:11;0.80;;;0.80;;
25569;SDS011;17955;45.542;9.238;2022-11-15T17:27:39;0.65;;;0.65;;
25569;SDS011;17955;45.542;9.238;2022-11-15T17:30:06;1.02;;;1.02;;
25569;SDS011;17955;45.542;9.238;2022-11-15T17:32:34;0.70;;;0.70;;
25569;SDS011;17955;45.542;9.238;2022-11-15T17:35:02;0.60;;;0.60;;
25569;SDS011;17955;45.542;9.238;2022-11-15T17:37:31;0.60;;;0.60;;
25569;SDS011;17955;45.542;9.238;2022-11-15T17:40:00;0.60;;;0.60;;
25569;SDS011;17955;45.542;9.238;2022-11-15T17:42:27;0.60;;;0.60;;
25569;SDS011;17955;45.542;9.238;2022-11-15T17:44:54;0.75;;;0.75;;
25569;SDS011;17955;45.542;9.238;2022-11-15T17:47:22;0.55;;;0.55;;
25569;SDS011;17955;45.542;9.238;2022-11-15T17:49:49;0.60;;;0.60;;
25569;SDS011;17955;45.542;9.238;2022-11-15T17:52:17;2.33;;;1.25;;
25569;SDS011;17955;45.542;9.238;2022-11-15T17:54:46;0.70;;;0.70;;
25569;SDS011;17955;45.542;9.238;2022-11-15T17:57:17;0.50;;;0.50;;
25569;SDS011;17955;45.542;9.238;2022-11-15T17:59:45;0.50;;;0.50;;
25569;SDS011;17955;45.542;9.238;2022-11-15T18:02:13;0.50;;;0.50;;
25569;SDS011;17955;45.542;9.238;2022-11-15T18:04:41;1.40;;;1.08;;
25569;SDS011;17955;45.542;9.238;2022-11-15T18:07:09;0.40;;;0.40;;
25569;SDS011;17955;45.542;9.238;2022-11-15T18:09:38;0.65;;;0.65;;
25569;SDS011;17955;45.542;9.238;2022-11-15T18:12:08;0.50;;;0.50;;
25569;SDS011;17955;45.542;9.238;2022-11-15T18:14:39;0.50;;;0.50;;
25569;SDS011;17955;45.542;9.238;2022-11-15T18:17:07;0.60;;;0.60;;
25569;SDS011;17955;45.542;9.238;2022-11-15T18:19:35;0.40;;;0.40;;
25569;SDS011;17955;45.542;9.238;2022-11-15T18:22:02;0.70;;;0.70;;
25569;SDS011;17955;45.542;9.238;2022-11-15T18:24:34;0.50;;;0.50;;
25569;SDS011;17955;45.542;9.238;2022-11-15T18:27:05;1.08;;;0.98;;
25569;SDS011;17955;45.542;9.238;2022-11-15T18:29:35;0.60;;;0.60;;
25569;SDS011;17955;45.542;9.238;2022-11-15T18:32:05;1.38;;;1.13;;
25569;SDS011;17955;45.542;9.238;2022-11-15T18:34:36;0.50;;;0.50;;
25569;SDS011;17955;45.542;9.238;2022-11-15T18:37:07;0.50;;;0.50;;
25569;SDS011;17955;45.542;9.238;2022-11-15T18:39:35;0.50;;;0.50;;
25569;SDS011;17955;45.542;9.238;2022-11-15T18:42:03;0.60;;;0.60;;
25569;SDS011;17955;45.542;9.238;2022-11-15T18:44:31;0.60;;;0.60;;
25569;SDS011;17955;45.542;9.238;2022-11-15T18:46:58;0.65;;;0.65;;
25569;SDS011;17955;45.542;9.238;2022-11-15T19:02:34;0.47;;;0.47;;
25569;SDS011;17955;45.542;9.238;2022-11-15T19:08:42;0.50;;;0.50;;
25569;SDS011;17955;45.542;9.238;2022-11-15T19:11:45;0.40;;;0.40;;
25569;SDS011;17955;45.542;9.238;2022-11-15T19:14:13;0.50;;;0.50;;
25569;SDS011;17955;45.542;9.238;2022-11-15T19:16:43;2.20;;;2.00;;
25569;SDS011;17955;45.542;9.238;2022-11-15T19:19:14;1.60;;;1.50;;
25569;SDS011;17955;45.542;9.238;2022-11-15T19:21:42;0.70;;;0.70;;
25569;SDS011;17955;45.542;9.238;2022-11-15T19:24:09;0.63;;;0.63;;
25569;SDS011;17955;45.542;9.238;2022-11-15T19:26:37;0.55;;;0.55;;
25569;SDS011;17955;45.542;9.238;2022-11-15T19:29:05;0.50;;;0.50;;
25569;SDS011;17955;45.542;9.238;2022-11-15T19:31:34;0.95;;;0.95;;
25569;SDS011;17955;45.542;9.238;2022-11-15T19:34:06;0.60;;;0.60;;
25569;SDS011;17955;45.542;9.238;2022-11-15T19:36:34;0.50;;;0.50;;
25569;SDS011;17955;45.542;9.238;2022-11-15T19:39:04;1.05;;;1.05;;
25569;SDS011;17955;45.542;9.238;2022-11-15T19:41:32;0.73;;;0.73;;
25569;SDS011;17955;45.542;9.238;2022-11-15T19:44:00;0.50;;;0.50;;
25569;SDS011;17955;45.542;9.238;2022-11-15T19:46:28;0.50;;;0.50;;
25569;SDS011;17955;45.542;9.238;2022-11-15T19:48:56;0.93;;;0.93;;
25569;SDS011;17955;45.542;9.238;2022-11-15T19:51:25;0.40;;;0.40;;
25569;SDS011;17955;45.542;9.238;2022-11-15T19:53:54;0.45;;;0.45;;
25569;SDS011;17955;45.542;9.238;2022-11-15T19:56:21;1.15;;;0.82;;
25569;SDS011;17955;45.542;9.238;2022-11-15T19:58:49;0.40;;;0.40;;
25569;SDS011;17955;45.542;9.238;2022-11-15T20:01:17;1.42;;;1.27;;
25569;SDS011;17955;45.542;9.238;2022-11-15T20:03:45;0.70;;;0.70;;
25569;SDS011;17955;45.542;9.238;2022-11-15T20:06:14;0.60;;;0.60;;
25569;SDS011;17955;45.542;9.238;2022-11-15T20:08:43;2.15;;;1.27;;
25569;SDS011;17955;45.542;9.238;2022-11-15T20:11:11;0.70;;;0.70;;
25569;SDS011;17955;45.542;9.238;2022-11-15T20:13:39;0.50;;;0.50;;
25569;SDS011;17955;45.542;9.238;2022-11-15T20:16:06;0.73;;;0.73;;
25569;SDS011;17955;45.542;9.238;2022-11-15T20:18:34;0.70;;;0.70;;
25569;SDS011;17955;45.542;9.238;2022-11-15T20:21:02;0.98;;;0.95;;
25569;SDS011;17955;45.542;9.238;2022-11-15T20:23:30;0.80;;;0.80;;
25569;SDS011;17955;45.542;9.238;2022-11-15T20:25:59;0.55;;;0.55;;
25569;SDS011;17955;45.542;9.238;2022-11-15T20:28:26;0.40;;;0.40;;
25569;SDS011;17955;45.542;9.238;2022-11-15T20:30:54;0.50;;;0.50;;
25569;SDS011;17955;45.542;9.238;2022-11-15T20:33:22;0.77;;;0.77;;
25569;SDS011;17955;45.542;9.238;2022-11-15T20:35:52;0.50;;;0.50;;
25569;SDS011;17955;45.542;9.238;2022-11-15T20:38:19;0.85;;;0.85;;
25569;SDS011;17955;45.542;9.238;2022-11-15T20:40:47;0.50;;;0.50;;
25569;SDS011;17955;45.542;9.238;2022-11-15T20:43:16;0.65;;;0.65;;
25569;SDS011;17955;45.542;9.238;2022-11-15T20:45:44;0.50;;;0.50;;
25569;SDS011;17955;45.542;9.238;2022-11-15T20:48:13;0.50;;;0.50;;
25569;SDS011;17955;45.542;9.238;2022-11-15T20:50:43;0.50;;;0.50;;
25569;SDS011;17955;45.542;9.238;2022-11-15T20:53:12;0.90;;;0.90;;
25569;SDS011;17955;45.542;9.238;2022-11-15T20:55:49;0.57;;;0.57;;
25569;SDS011;17955;45.542;9.238;2022-11-15T20:58:19;0.85;;;0.85;;
25569;SDS011;17955;45.542;9.238;2022-11-15T21:03:37;0.82;;;0.82;;